createdAt,value
2023-11-30T00:00:27.398Z,9.68
2023-11-30T00:02:54.022Z,13.63
2023-11-30T00:05:23.241Z,14.98
2023-11-30T00:07:50.212Z,13.13
2023-11-30T00:10:16.917Z,14.93
2023-11-30T00:12:43.560Z,12.45
2023-11-30T00:15:10.576Z,14.57
2023-11-30T00:17:37.202Z,15.57
2023-11-30T00:20:04.593Z,14.17
2023-11-30T00:22:31.173Z,13.73
2023-11-30T00:24:57.674Z,19.73
2023-11-30T00:27:24.507Z,13.30
2023-11-30T00:29:51.123Z,16.33
2023-11-30T00:32:17.710Z,17.10
2023-11-30T00:34:44.324Z,17.02
2023-11-30T00:37:10.856Z,14.60
2023-11-30T00:39:37.386Z,15.88
2023-11-30T00:42:04.334Z,13.23
2023-11-30T00:44:30.920Z,15.40
2023-11-30T00:46:57.468Z,14.65
2023-11-30T00:49:23.988Z,13.52
2023-11-30T00:51:50.600Z,12.65
2023-11-30T00:54:17.291Z,14.43
2023-11-30T00:56:43.948Z,12.77
2023-11-30T00:59:10.501Z,13.45
2023-11-30T01:01:37.176Z,14.40
2023-11-30T01:04:03.859Z,14.73
2023-11-30T01:06:31.467Z,11.85
2023-11-30T01:08:58.184Z,13.17
2023-11-30T01:11:24.725Z,15.40
2023-11-30T01:13:51.207Z,14.35
2023-11-30T01:16:17.780Z,15.55
2023-11-30T01:18:44.443Z,13.18
2023-11-30T01:21:11.121Z,14.17
2023-11-30T01:23:37.659Z,15.85
2023-11-30T01:26:04.517Z,14.95
2023-11-30T01:28:31.135Z,15.10
2023-11-30T01:30:57.743Z,15.98
2023-11-30T01:33:24.452Z,13.10
2023-11-30T01:35:51.332Z,15.02
2023-11-30T01:38:17.946Z,13.20
2023-11-30T01:40:44.597Z,14.40
2023-11-30T01:43:11.970Z,13.38
2023-11-30T01:45:38.951Z,14.47
2023-11-30T01:48:05.780Z,15.88
2023-11-30T01:50:32.494Z,16.05
2023-11-30T01:52:59.115Z,16.60
2023-11-30T01:55:25.824Z,12.90
2023-11-30T01:57:52.574Z,14.70
2023-11-30T02:00:20.342Z,12.85
2023-11-30T02:02:47.808Z,16.52
2023-11-30T02:05:14.348Z,13.32
2023-11-30T02:07:40.859Z,15.98
2023-11-30T02:10:07.822Z,15.50
2023-11-30T02:12:34.494Z,15.13
2023-11-30T02:15:01.184Z,15.80
2023-11-30T02:17:27.815Z,15.93
2023-11-30T02:19:54.308Z,16.55
2023-11-30T02:22:20.825Z,16.80
2023-11-30T02:24:47.711Z,15.43
2023-11-30T02:27:14.282Z,17.70
2023-11-30T02:29:40.820Z,16.15
2023-11-30T02:32:07.603Z,17.17
2023-11-30T02:34:34.349Z,18.40
2023-11-30T02:37:00.865Z,15.65
2023-11-30T02:39:27.642Z,16.73
2023-11-30T02:41:54.329Z,17.77
2023-11-30T02:44:20.879Z,16.88
2023-11-30T02:46:47.413Z,16.50
2023-11-30T02:49:13.970Z,16.55
2023-11-30T02:51:40.476Z,16.25
2023-11-30T02:54:07.017Z,16.15
2023-11-30T02:56:40.539Z,17.00
2023-11-30T02:59:07.302Z,14.53
2023-11-30T03:01:34.004Z,16.10
2023-11-30T03:04:00.712Z,16.08
2023-11-30T03:06:27.313Z,16.50
2023-11-30T03:08:53.859Z,16.58
2023-11-30T03:11:20.419Z,17.23
2023-11-30T03:13:46.929Z,14.20
2023-11-30T03:16:13.506Z,18.33
2023-11-30T03:18:41.701Z,15.00
2023-11-30T03:21:21.667Z,16.05
2023-11-30T03:23:48.261Z,14.43
2023-11-30T03:26:18.143Z,16.10
2023-11-30T03:28:45.086Z,16.00
2023-11-30T03:31:11.572Z,17.55
2023-11-30T03:33:38.090Z,18.77
2023-11-30T03:36:04.838Z,18.00
2023-11-30T03:38:31.670Z,18.52
2023-11-30T03:40:58.252Z,19.55
2023-11-30T03:43:24.721Z,16.05
2023-11-30T03:45:51.281Z,15.70
2023-11-30T03:48:17.894Z,20.10
2023-11-30T03:50:44.619Z,17.52
2023-11-30T03:53:11.126Z,20.38
2023-11-30T03:55:37.601Z,20.90
2023-11-30T03:58:05.947Z,17.90
2023-11-30T04:00:33.079Z,17.50
2023-11-30T04:02:59.609Z,18.40
2023-11-30T04:05:26.150Z,19.20
2023-11-30T04:07:52.639Z,19.02
2023-11-30T04:10:19.320Z,15.68
2023-11-30T04:12:45.766Z,17.17
2023-11-30T04:15:12.400Z,16.90
2023-11-30T04:17:38.988Z,16.00
2023-11-30T04:20:06.329Z,15.82
2023-11-30T04:22:32.837Z,14.68
2023-11-30T04:24:59.338Z,15.50
2023-11-30T04:27:25.910Z,15.05
2023-11-30T04:29:52.459Z,21.83
2023-11-30T04:32:18.975Z,20.67
2023-11-30T04:34:45.493Z,16.45
2023-11-30T04:37:11.997Z,17.97
2023-11-30T04:39:38.954Z,18.80
2023-11-30T04:42:05.707Z,14.10
2023-11-30T04:44:32.350Z,18.65
2023-11-30T04:46:58.918Z,15.18
2023-11-30T04:49:25.416Z,16.23
2023-11-30T04:51:51.951Z,19.85
2023-11-30T04:54:18.542Z,18.05
2023-11-30T04:56:45.030Z,18.00
2023-11-30T04:59:11.511Z,18.48
2023-11-30T05:01:38.271Z,19.00
2023-11-30T05:04:05.230Z,18.13
2023-11-30T05:06:32.051Z,14.77
2023-11-30T05:08:58.641Z,18.75
2023-11-30T05:11:25.976Z,18.80
2023-11-30T05:13:52.636Z,17.63
2023-11-30T05:16:19.146Z,17.33
2023-11-30T05:18:45.666Z,15.93
2023-11-30T05:21:12.351Z,18.90
2023-11-30T05:23:38.887Z,16.83
2023-11-30T05:26:05.753Z,16.57
2023-11-30T05:28:33.541Z,19.38
2023-11-30T05:31:00.302Z,15.90
2023-11-30T05:33:28.932Z,15.52
2023-11-30T05:35:55.701Z,18.92
2023-11-30T05:38:22.384Z,20.20
2023-11-30T05:40:48.927Z,19.67
2023-11-30T05:43:16.355Z,18.77
2023-11-30T05:45:45.114Z,19.00
2023-11-30T05:48:11.805Z,15.98
2023-11-30T05:50:38.361Z,18.70
2023-11-30T05:53:06.327Z,20.40
2023-11-30T06:00:49.426Z,17.85
2023-11-30T06:03:16.113Z,19.20
2023-11-30T06:05:42.849Z,17.30
2023-11-30T06:08:10.322Z,17.42
2023-11-30T06:10:37.504Z,15.98
2023-11-30T06:13:04.330Z,16.50
2023-11-30T06:15:31.013Z,16.53
2023-11-30T06:17:57.641Z,30.30
2023-11-30T06:20:24.235Z,15.05
2023-11-30T06:22:50.762Z,19.65
2023-11-30T06:25:17.384Z,16.30
2023-11-30T06:27:43.945Z,19.47
2023-11-30T06:30:11.544Z,20.40
2023-11-30T06:32:38.152Z,17.38
2023-11-30T06:35:06.092Z,18.55
2023-11-30T06:37:32.700Z,19.13
2023-11-30T06:39:59.304Z,16.97
2023-11-30T06:42:25.835Z,17.13
2023-11-30T06:44:52.465Z,17.70
2023-11-30T06:47:19.054Z,17.60
2023-11-30T06:49:46.493Z,17.15
2023-11-30T06:52:13.112Z,16.37
2023-11-30T06:54:39.823Z,16.92
2023-11-30T06:57:06.454Z,18.48
2023-11-30T06:59:34.287Z,15.50
2023-11-30T07:02:01.056Z,16.15
2023-11-30T07:04:29.551Z,17.87
2023-11-30T07:06:56.447Z,17.10
2023-11-30T07:09:23.058Z,18.70
2023-11-30T07:11:49.598Z,15.32
2023-11-30T07:14:16.111Z,15.40
2023-11-30T07:16:42.656Z,16.60
2023-11-30T07:19:09.260Z,17.42
2023-11-30T07:21:35.839Z,14.68
2023-11-30T07:24:02.506Z,16.25
2023-11-30T07:26:29.086Z,17.90
2023-11-30T07:28:55.630Z,15.27
2023-11-30T07:31:23.011Z,15.15
2023-11-30T07:33:50.044Z,16.60
2023-11-30T07:36:16.838Z,14.90
2023-11-30T07:38:43.628Z,14.25
2023-11-30T07:41:10.253Z,16.10
2023-11-30T07:43:37.444Z,16.13
2023-11-30T07:46:04.260Z,16.23
2023-11-30T07:48:30.920Z,20.13
2023-11-30T07:50:57.541Z,19.77
2023-11-30T07:53:26.557Z,21.83
2023-11-30T07:55:57.758Z,24.77
2023-11-30T07:58:24.923Z,24.73
2023-11-30T08:00:52.136Z,25.20
2023-11-30T08:03:18.828Z,20.98
2023-11-30T08:05:45.915Z,21.23
2023-11-30T08:08:13.179Z,22.52
2023-11-30T08:10:40.368Z,23.63
2023-11-30T08:13:07.730Z,20.63
2023-11-30T08:15:34.530Z,20.83
2023-11-30T08:18:02.024Z,22.03
2023-11-30T08:20:28.839Z,19.77
2023-11-30T08:22:56.447Z,22.20
2023-11-30T08:25:23.106Z,20.50
2023-11-30T08:27:54.105Z,20.50
2023-11-30T08:30:21.716Z,19.63
2023-11-30T08:32:48.367Z,23.15
2023-11-30T08:35:14.930Z,23.30
2023-11-30T08:37:41.461Z,21.55
2023-11-30T08:40:08.903Z,22.02
2023-11-30T08:42:36.632Z,26.60
2023-11-30T08:45:04.093Z,24.98
2023-11-30T08:47:30.717Z,23.00
2023-11-30T08:49:57.340Z,24.00
2023-11-30T08:52:24.292Z,28.17
2023-11-30T08:54:52.496Z,34.53
2023-11-30T08:57:20.644Z,33.40
2023-11-30T08:59:47.578Z,38.30
2023-11-30T09:02:14.696Z,34.83
2023-11-30T09:04:41.802Z,30.75
2023-11-30T09:07:08.496Z,30.90
2023-11-30T09:09:35.175Z,29.88
2023-11-30T09:12:03.322Z,32.15
2023-11-30T09:14:31.939Z,31.05
2023-11-30T09:17:00.457Z,26.38
2023-11-30T09:19:27.119Z,26.23
2023-11-30T09:21:53.928Z,29.52
2023-11-30T09:24:23.036Z,29.00
2023-11-30T09:26:54.439Z,29.48
2023-11-30T09:29:21.163Z,29.58
2023-11-30T09:31:47.936Z,30.93
2023-11-30T09:34:14.630Z,31.70
2023-11-30T09:36:42.000Z,31.15
2023-11-30T09:39:26.747Z,30.63
2023-11-30T09:41:53.500Z,28.25
2023-11-30T09:44:20.705Z,27.13
2023-11-30T09:46:47.333Z,31.20
2023-11-30T09:49:13.933Z,33.03
2023-11-30T09:51:42.521Z,28.55
2023-11-30T09:54:09.404Z,29.48
2023-11-30T09:56:36.021Z,28.13
2023-11-30T09:59:02.546Z,32.28
2023-11-30T10:01:29.222Z,28.35
2023-11-30T10:03:56.287Z,26.48
2023-11-30T10:06:22.977Z,28.05
2023-11-30T10:08:49.705Z,31.33
2023-11-30T10:11:16.356Z,29.00
2023-11-30T10:13:44.192Z,29.40
2023-11-30T10:16:11.886Z,36.03
2023-11-30T10:18:38.660Z,35.55
2023-11-30T10:21:08.648Z,38.20
2023-11-30T10:23:35.565Z,33.42
2023-11-30T10:26:03.221Z,32.72
2023-11-30T10:28:30.175Z,30.98
2023-11-30T10:31:00.448Z,31.33
2023-11-30T10:33:28.844Z,27.97
2023-11-30T10:35:55.593Z,27.30
2023-11-30T10:38:34.899Z,28.25
2023-11-30T10:41:08.119Z,23.02
2023-11-30T10:43:37.618Z,25.60
2023-11-30T10:46:08.785Z,23.97
2023-11-30T10:48:39.689Z,25.40
2023-11-30T10:51:08.524Z,24.65
2023-11-30T10:54:24.685Z,23.88
2023-11-30T10:56:51.684Z,26.73
2023-11-30T10:59:18.162Z,23.03
2023-11-30T11:01:46.449Z,22.15
2023-11-30T11:04:16.260Z,22.38
2023-11-30T11:06:43.332Z,25.52
2023-11-30T11:09:16.495Z,26.58
2023-11-30T11:11:44.406Z,25.53
2023-11-30T11:14:34.023Z,20.63
2023-11-30T11:17:10.921Z,25.17
2023-11-30T11:19:44.915Z,24.75
2023-11-30T11:22:22.434Z,25.27
2023-11-30T11:24:49.752Z,24.30
2023-11-30T11:27:30.671Z,23.38
2023-11-30T11:29:59.106Z,22.25
2023-11-30T11:32:26.566Z,23.52
2023-11-30T11:34:54.036Z,20.45
2023-11-30T11:37:21.071Z,20.97
2023-11-30T11:39:49.588Z,23.70
2023-11-30T11:42:16.432Z,22.25
2023-11-30T11:44:43.030Z,22.48
2023-11-30T11:47:09.768Z,20.30
2023-11-30T11:49:36.350Z,23.70
2023-11-30T11:52:02.889Z,22.02
2023-11-30T11:54:29.920Z,22.25
2023-11-30T11:56:56.525Z,26.40
2023-11-30T11:59:24.929Z,24.38
2023-11-30T12:01:51.991Z,26.40
2023-11-30T12:04:33.193Z,25.08
2023-11-30T12:07:01.347Z,23.77
2023-11-30T12:09:27.927Z,25.83
2023-11-30T12:11:57.486Z,21.75
2023-11-30T12:14:26.008Z,21.63
2023-11-30T12:16:53.216Z,19.92
2023-11-30T12:19:21.115Z,22.88
2023-11-30T12:21:48.274Z,20.90
2023-11-30T12:24:15.813Z,18.88
2023-11-30T12:26:42.987Z,17.60
2023-11-30T12:29:11.185Z,20.85
2023-11-30T12:31:38.111Z,18.98
2023-11-30T12:34:05.512Z,16.52
2023-11-30T12:36:32.129Z,19.08
2023-11-30T12:38:58.796Z,17.37
2023-11-30T12:41:25.510Z,18.40
2023-11-30T12:43:52.193Z,17.08
2023-11-30T12:46:18.801Z,16.55
2023-11-30T12:48:45.476Z,16.88
2023-11-30T12:51:12.060Z,16.67
2023-11-30T12:53:39.537Z,18.42
2023-11-30T12:56:06.615Z,16.08
2023-11-30T12:58:33.255Z,16.45
2023-11-30T13:01:00.311Z,18.77
2023-11-30T13:03:27.388Z,16.60
2023-11-30T13:05:54.097Z,16.80
2023-11-30T13:08:21.812Z,17.85
2023-11-30T13:10:48.463Z,20.20
2023-11-30T13:13:14.996Z,18.92
2023-11-30T13:15:43.002Z,19.07
2023-11-30T13:18:09.597Z,17.73
2023-11-30T13:20:36.438Z,17.83
2023-11-30T13:23:02.979Z,19.75
2023-11-30T13:25:29.558Z,18.17
2023-11-30T13:27:56.119Z,21.20
2023-11-30T13:30:22.777Z,21.42
2023-11-30T13:32:49.413Z,21.85
2023-11-30T13:35:16.160Z,18.38
2023-11-30T13:37:43.345Z,21.42
2023-11-30T13:40:11.209Z,21.30
2023-11-30T13:42:38.085Z,22.83
2023-11-30T13:45:06.489Z,21.58
2023-11-30T13:47:33.344Z,20.25
2023-11-30T13:49:59.870Z,21.95
2023-11-30T13:52:26.473Z,21.97
2023-11-30T13:54:53.098Z,21.00
2023-11-30T13:57:19.722Z,21.35
2023-11-30T13:59:46.285Z,21.45
2023-11-30T14:02:12.945Z,24.30
2023-11-30T14:04:39.733Z,23.63
2023-11-30T14:07:06.457Z,23.60
2023-11-30T14:09:33.142Z,21.67
2023-11-30T14:11:59.879Z,20.13
2023-11-30T14:14:27.490Z,26.63
2023-11-30T14:16:54.541Z,25.70
2023-11-30T14:19:21.375Z,23.27
2023-11-30T14:21:48.047Z,26.70
2023-11-30T14:24:15.439Z,28.40
2023-11-30T14:26:42.176Z,30.15
2023-11-30T14:29:08.849Z,30.40
2023-11-30T14:31:35.384Z,31.83
2023-11-30T14:34:02.028Z,28.58
2023-11-30T14:36:30.695Z,25.40
2023-11-30T14:38:58.810Z,26.90
2023-11-30T14:41:25.878Z,27.97
2023-11-30T14:43:52.627Z,31.98
2023-11-30T14:46:19.308Z,26.63
2023-11-30T14:48:45.891Z,29.40
2023-11-30T14:51:14.451Z,32.88
2023-11-30T14:53:41.263Z,31.40
2023-11-30T14:56:09.030Z,37.08
2023-11-30T14:58:35.505Z,34.60
2023-11-30T15:01:02.198Z,35.50
2023-11-30T15:03:29.090Z,45.40
2023-11-30T15:05:55.734Z,38.30
2023-11-30T15:08:22.260Z,41.10
2023-11-30T15:10:49.707Z,36.80
2023-11-30T15:13:16.506Z,44.72
2023-11-30T15:15:43.437Z,52.90
2023-11-30T15:18:09.986Z,59.13
2023-11-30T15:20:36.804Z,74.55
2023-11-30T15:23:03.358Z,67.05
2023-11-30T15:25:29.910Z,70.13
2023-11-30T15:27:56.536Z,64.82
2023-11-30T15:30:23.181Z,55.17
2023-11-30T15:32:49.843Z,45.75
2023-11-30T15:35:16.875Z,47.38
2023-11-30T15:37:49.227Z,45.40
2023-11-30T15:40:17.765Z,38.78
2023-11-30T15:42:47.852Z,32.40
2023-11-30T15:45:17.748Z,36.03
2023-11-30T15:47:44.725Z,38.00
2023-11-30T15:50:11.987Z,33.10
2023-11-30T15:52:38.601Z,31.40
2023-11-30T15:55:05.748Z,35.03
2023-11-30T15:57:32.432Z,34.85
2023-11-30T15:59:59.138Z,35.80
2023-11-30T16:02:25.790Z,33.70
2023-11-30T16:04:52.377Z,31.02
2023-11-30T16:07:18.923Z,29.20
2023-11-30T16:09:45.605Z,28.08
2023-11-30T16:12:12.247Z,27.05
2023-11-30T16:14:38.790Z,34.30
2023-11-30T16:17:05.564Z,28.35
2023-11-30T16:19:34.489Z,26.93
2023-11-30T16:22:01.100Z,29.00
2023-11-30T16:24:27.787Z,24.95
2023-11-30T16:26:55.378Z,27.75
2023-11-30T16:29:22.535Z,27.30
2023-11-30T16:31:50.329Z,36.23
2023-11-30T16:34:19.860Z,32.45
2023-11-30T16:36:48.605Z,38.50
2023-11-30T16:39:15.899Z,41.08
2023-11-30T16:41:43.342Z,36.47
2023-11-30T16:44:09.991Z,35.57
2023-11-30T16:46:37.276Z,38.90
2023-11-30T16:49:04.294Z,38.58
2023-11-30T16:51:30.930Z,43.22
2023-11-30T16:53:57.684Z,47.60
2023-11-30T16:56:25.400Z,55.37
2023-11-30T16:58:55.266Z,46.10
2023-11-30T17:01:22.527Z,46.22
2023-11-30T17:03:49.689Z,42.35
2023-11-30T17:06:16.457Z,49.30
2023-11-30T17:08:43.142Z,48.17
2023-11-30T17:11:09.849Z,51.40
2023-11-30T17:13:36.365Z,40.00
2023-11-30T17:16:05.487Z,43.60
2023-11-30T17:18:33.018Z,37.60
2023-11-30T17:21:00.219Z,40.03
2023-11-30T17:23:27.585Z,37.70
2023-11-30T17:25:54.580Z,29.75
2023-11-30T17:28:21.114Z,28.88
2023-11-30T17:30:47.683Z,30.52
2023-11-30T17:33:14.369Z,24.07
2023-11-30T17:35:41.826Z,29.45
2023-11-30T17:38:08.433Z,29.20
2023-11-30T17:40:35.051Z,30.40
2023-11-30T17:43:01.738Z,30.98
2023-11-30T17:45:28.431Z,28.93
2023-11-30T17:47:56.731Z,28.33
2023-11-30T17:50:24.379Z,27.15
2023-11-30T17:52:51.107Z,26.52
2023-11-30T17:55:18.236Z,32.28
2023-11-30T17:57:44.946Z,29.17
2023-11-30T18:00:12.095Z,30.63
2023-11-30T18:02:38.688Z,38.03
2023-11-30T18:05:05.671Z,36.95
2023-11-30T18:07:32.172Z,37.38
2023-11-30T18:09:58.813Z,39.10
2023-11-30T18:12:25.711Z,40.08
2023-11-30T18:14:52.452Z,39.38
2023-11-30T18:17:19.078Z,45.33
2023-11-30T18:19:45.600Z,40.05
2023-11-30T18:22:12.214Z,54.27
2023-11-30T18:24:38.788Z,44.78
2023-11-30T18:27:05.544Z,41.58
2023-11-30T18:29:32.209Z,52.88
2023-11-30T18:31:59.009Z,56.42
2023-11-30T18:34:25.779Z,44.90
2023-11-30T18:36:53.701Z,45.30
2023-11-30T18:39:20.405Z,39.95
2023-11-30T18:41:47.106Z,42.58
2023-11-30T18:44:13.752Z,37.30
2023-11-30T18:46:40.837Z,37.50
2023-11-30T18:49:07.960Z,39.10
2023-11-30T18:51:36.668Z,39.42
2023-11-30T18:54:03.575Z,33.25
2023-11-30T18:56:30.444Z,34.67
2023-11-30T18:58:57.785Z,37.50
2023-11-30T19:01:25.101Z,37.92
2023-11-30T19:03:52.157Z,36.17
2023-11-30T19:06:20.218Z,44.88
2023-11-30T19:08:48.301Z,41.33
2023-11-30T19:11:16.903Z,38.10
2023-11-30T19:13:44.247Z,39.40
2023-11-30T19:16:23.838Z,34.90
2023-11-30T19:18:51.435Z,34.92
2023-11-30T19:21:18.427Z,41.13
2023-11-30T19:23:48.188Z,36.13
2023-11-30T19:26:16.220Z,36.17
2023-11-30T19:28:42.848Z,35.42
2023-11-30T19:31:09.547Z,33.35
2023-11-30T19:33:36.252Z,32.72
2023-11-30T19:36:02.906Z,26.63
2023-11-30T19:38:29.553Z,34.72
2023-11-30T19:40:57.023Z,35.85
2023-11-30T19:43:26.555Z,41.00
2023-11-30T19:45:55.359Z,35.30
2023-11-30T19:48:22.599Z,42.50
2023-11-30T19:50:49.266Z,38.33
2023-11-30T19:53:16.412Z,38.40
2023-11-30T19:55:45.900Z,36.95
2023-11-30T19:58:12.406Z,32.75
2023-11-30T20:00:41.169Z,37.87
2023-11-30T20:03:08.516Z,30.15
2023-11-30T20:05:35.237Z,33.35
2023-11-30T20:08:01.845Z,31.55
2023-11-30T20:10:28.442Z,33.25
2023-11-30T20:12:55.620Z,33.20
2023-11-30T20:15:22.317Z,32.85
2023-11-30T20:17:49.766Z,32.80
2023-11-30T20:20:16.856Z,29.98
2023-11-30T20:22:43.572Z,38.10
2023-11-30T20:25:10.481Z,34.83
2023-11-30T20:27:37.069Z,41.08
2023-11-30T20:30:03.998Z,46.92
2023-11-30T20:32:30.588Z,45.13
2023-11-30T20:34:57.287Z,43.85
2023-11-30T20:37:25.960Z,42.00
2023-11-30T20:39:52.637Z,35.35
2023-11-30T20:42:19.316Z,34.95
2023-11-30T20:44:47.751Z,36.97
2023-11-30T20:47:14.466Z,33.20
2023-11-30T20:49:41.036Z,27.30
2023-11-30T20:52:07.630Z,24.70
2023-11-30T20:54:35.303Z,26.38
2023-11-30T20:57:03.196Z,27.17
2023-11-30T20:59:29.812Z,27.65
2023-11-30T21:01:56.476Z,24.80
2023-11-30T21:04:23.351Z,23.60
2023-11-30T21:06:50.021Z,22.30
2023-11-30T21:09:16.685Z,23.90
2023-11-30T21:11:43.302Z,23.58
2023-11-30T21:14:11.342Z,23.83
2023-11-30T21:16:38.332Z,24.10
2023-11-30T21:19:05.035Z,21.77
2023-11-30T21:21:32.078Z,20.25
2023-11-30T21:23:58.663Z,22.30
2023-11-30T21:26:25.488Z,17.87
2023-11-30T21:28:52.006Z,21.10
2023-11-30T21:31:18.741Z,21.90
2023-11-30T21:33:45.467Z,23.73
2023-11-30T21:36:14.892Z,34.70
2023-11-30T21:38:42.044Z,29.93
2023-11-30T21:41:08.644Z,28.80
2023-11-30T21:43:35.274Z,29.33
2023-11-30T21:46:01.963Z,24.50
2023-11-30T21:48:28.642Z,25.33
2023-11-30T21:50:55.446Z,30.40
2023-11-30T21:53:22.110Z,32.38
2023-11-30T21:55:49.359Z,29.25
2023-11-30T21:58:16.280Z,27.27
2023-11-30T22:00:44.703Z,23.98
2023-11-30T22:03:12.653Z,29.20
2023-11-30T22:05:40.336Z,32.53
2023-11-30T22:08:06.958Z,30.33
2023-11-30T22:10:33.473Z,33.28
2023-11-30T22:13:00.078Z,40.78
2023-11-30T22:15:26.806Z,49.97
2023-11-30T22:17:53.410Z,49.53
2023-11-30T22:20:22.276Z,48.88
2023-11-30T22:22:48.791Z,52.47
2023-11-30T22:25:15.432Z,58.92
2023-11-30T22:27:42.030Z,55.83
2023-11-30T22:30:10.490Z,53.92
2023-11-30T22:32:37.012Z,53.03
2023-11-30T22:35:04.825Z,49.17
2023-11-30T22:37:31.388Z,45.55
2023-11-30T22:39:57.958Z,41.43
2023-11-30T22:42:26.313Z,37.03
2023-11-30T22:44:53.097Z,32.78
2023-11-30T22:47:19.639Z,30.13
2023-11-30T22:49:46.412Z,23.90
2023-11-30T22:52:13.099Z,26.70
2023-11-30T22:54:40.174Z,25.33
2023-11-30T22:57:06.791Z,28.00
2023-11-30T22:59:34.612Z,29.20
2023-11-30T23:02:01.447Z,24.95
2023-11-30T23:04:29.257Z,24.53
2023-11-30T23:06:55.978Z,25.02
2023-11-30T23:09:22.545Z,25.70
2023-11-30T23:11:49.115Z,22.27
2023-11-30T23:14:15.834Z,23.10
2023-11-30T23:16:42.396Z,24.53
2023-11-30T23:19:08.951Z,22.08
2023-11-30T23:21:35.505Z,22.90
2023-11-30T23:24:02.736Z,26.02
2023-11-30T23:26:29.357Z,25.27
2023-11-30T23:28:55.960Z,22.27
2023-11-30T23:31:23.023Z,22.88
2023-11-30T23:33:49.668Z,20.60
2023-11-30T23:36:16.306Z,21.33
2023-11-30T23:38:43.064Z,19.42
2023-11-30T23:41:09.815Z,20.93
2023-11-30T23:43:36.438Z,19.52
2023-11-30T23:46:04.200Z,20.40
2023-11-30T23:48:30.877Z,19.77
2023-11-30T23:50:57.472Z,21.38
2023-11-30T23:53:23.969Z,17.57
2023-11-30T23:55:50.512Z,23.08
2023-11-30T23:58:17.757Z,20.70
